createdAt,value
2022-09-07T00:00:07.900Z,14.52
2022-09-07T00:05:09.991Z,15.95
2022-09-07T00:10:11.779Z,14.75
2022-09-07T00:15:13.770Z,14.43
2022-09-07T00:20:17.086Z,15.57
2022-09-07T00:25:18.879Z,14.15
2022-09-07T00:30:20.683Z,13.25
2022-09-07T00:35:22.504Z,13.27
2022-09-07T00:40:24.353Z,13.38
2022-09-07T00:45:26.192Z,14.43
2022-09-07T00:50:33.852Z,14.90
2022-09-07T00:55:37.655Z,14.73
2022-09-07T01:00:44.834Z,14.55
2022-09-07T01:05:53.775Z,14.57
2022-09-07T01:10:58.050Z,13.80
2022-09-07T01:16:13.155Z,13.25
2022-09-07T01:21:22.452Z,12.85
2022-09-07T01:26:54.546Z,14.80
2022-09-07T01:31:56.317Z,15.10
2022-09-07T01:37:01.000Z,13.93
2022-09-07T01:42:18.988Z,14.95
2022-09-07T01:47:25.821Z,14.30
2022-09-07T01:52:33.573Z,14.23
2022-09-07T01:57:43.690Z,14.27
2022-09-07T02:03:04.689Z,14.75
2022-09-07T02:08:12.966Z,14.27
2022-09-07T02:13:21.731Z,15.55
2022-09-07T02:18:27.269Z,14.38
2022-09-07T02:23:33.206Z,14.82
2022-09-07T02:28:36.720Z,14.10
2022-09-07T02:33:38.895Z,15.20
2022-09-07T02:38:40.770Z,16.42
2022-09-07T02:43:42.589Z,14.30
2022-09-07T02:49:04.061Z,14.63
2022-09-07T02:54:05.857Z,14.43
2022-09-07T02:59:17.558Z,14.30
2022-09-07T03:04:29.025Z,15.85
2022-09-07T03:09:37.535Z,14.98
2022-09-07T03:14:41.699Z,15.98
2022-09-07T03:19:43.532Z,15.43
2022-09-07T03:24:45.705Z,15.55
2022-09-07T03:29:47.482Z,15.77
2022-09-07T03:34:49.283Z,15.00
2022-09-07T03:39:51.128Z,15.65
2022-09-07T03:44:53.020Z,14.23
2022-09-07T03:49:54.845Z,15.48
2022-09-07T03:54:56.658Z,15.50
2022-09-07T03:59:58.514Z,14.65
2022-09-07T04:05:00.313Z,17.92
2022-09-07T04:10:02.381Z,14.43
2022-09-07T04:15:04.473Z,16.10
2022-09-07T04:20:06.929Z,15.30
2022-09-07T04:25:08.971Z,15.25
2022-09-07T04:30:11.444Z,14.32
2022-09-07T04:35:13.930Z,15.32
2022-09-07T04:40:15.871Z,14.88
2022-09-07T04:45:17.734Z,15.10
2022-09-07T04:50:19.545Z,15.75
2022-09-07T04:55:21.785Z,16.08
2022-09-07T05:00:23.706Z,14.20
2022-09-07T05:05:25.632Z,14.98
2022-09-07T05:10:27.495Z,15.60
2022-09-07T05:15:30.639Z,14.32
2022-09-07T05:20:32.844Z,15.05
2022-09-07T05:25:34.945Z,15.75
2022-09-07T05:35:59.718Z,14.02
2022-09-07T05:41:02.096Z,15.43
2022-09-07T05:46:04.201Z,15.35
2022-09-07T05:51:07.085Z,16.52
2022-09-07T05:56:09.619Z,16.60
2022-09-07T06:01:12.618Z,17.00
2022-09-07T06:06:17.571Z,16.40
2022-09-07T06:11:22.288Z,17.13
2022-09-07T06:16:24.153Z,17.85
2022-09-07T06:21:26.069Z,17.88
2022-09-07T06:26:27.867Z,16.92
2022-09-07T06:31:30.046Z,17.50
2022-09-07T06:36:31.886Z,19.80
2022-09-07T06:52:04.259Z,17.73
2022-09-07T06:57:09.262Z,16.65
2022-09-07T07:02:15.102Z,19.45
2022-09-07T07:07:17.037Z,18.02
2022-09-07T07:17:19.537Z,20.38
2022-09-07T07:22:45.555Z,18.80
2022-09-07T07:27:45.999Z,15.45
2022-09-07T07:32:48.439Z,14.73
2022-09-07T07:43:15.802Z,12.38
2022-09-07T07:48:17.617Z,12.43
2022-09-07T07:58:45.401Z,13.50
2022-09-07T08:03:47.374Z,13.07
2022-09-07T08:08:49.217Z,13.18
2022-09-07T08:13:51.250Z,12.95
2022-09-07T08:18:53.761Z,14.20
2022-09-07T08:23:55.668Z,14.48
2022-09-07T08:28:58.778Z,13.15
2022-09-07T08:34:00.547Z,13.32
2022-09-07T08:39:02.625Z,12.93
2022-09-07T08:44:18.491Z,13.48
2022-09-07T08:49:30.278Z,12.93
2022-09-07T08:54:33.191Z,12.88
2022-09-07T08:59:42.995Z,13.63
2022-09-07T09:10:09.667Z,13.68
2022-09-07T09:15:21.311Z,13.57
2022-09-07T09:20:47.721Z,14.20
2022-09-07T09:25:59.586Z,14.43
2022-09-07T09:31:01.496Z,13.02
2022-09-07T09:36:03.315Z,13.00
2022-09-07T09:41:23.779Z,13.63
2022-09-07T09:46:27.315Z,12.80
2022-09-07T09:56:54.904Z,13.20
2022-09-07T10:07:27.417Z,12.43
2022-09-07T10:12:32.879Z,12.18
2022-09-07T10:17:47.666Z,12.82
2022-09-07T10:22:52.174Z,12.48
2022-09-07T10:28:08.435Z,12.48
2022-09-07T10:33:33.721Z,13.32
2022-09-07T10:38:44.868Z,12.88
2022-09-07T10:43:50.154Z,12.55
2022-09-07T10:49:40.009Z,12.75
2022-09-07T10:54:53.402Z,13.80
2022-09-07T11:00:16.190Z,12.73
2022-09-07T11:05:20.611Z,13.35
2022-09-07T11:10:42.029Z,13.15
2022-09-07T11:15:56.817Z,12.90
2022-09-07T11:21:01.778Z,12.43
2022-09-07T11:26:12.440Z,12.55
2022-09-07T11:31:23.324Z,12.70
2022-09-07T11:36:28.936Z,12.77
2022-09-07T11:41:36.996Z,12.82
2022-09-07T11:46:48.966Z,12.77
2022-09-07T11:51:53.560Z,14.00
2022-09-07T11:57:15.820Z,13.73
2022-09-07T12:02:59.782Z,13.60
2022-09-07T12:08:10.966Z,13.85
2022-09-07T12:13:34.857Z,14.52
2022-09-07T12:19:07.434Z,15.07
2022-09-07T12:24:43.166Z,14.15
2022-09-07T12:29:45.723Z,14.60
2022-09-07T12:34:53.588Z,14.00
2022-09-07T12:40:29.227Z,13.85
2022-09-07T12:45:30.956Z,13.75
2022-09-07T12:50:55.534Z,13.32
2022-09-07T12:56:17.482Z,13.80
2022-09-07T13:01:28.472Z,13.15
2022-09-07T13:07:05.599Z,12.27
2022-09-07T13:12:57.910Z,12.32
2022-09-07T13:17:59.739Z,11.27
2022-09-07T13:23:21.544Z,11.63
2022-09-07T13:28:28.790Z,11.35
2022-09-07T13:33:30.345Z,11.48
2022-09-07T13:38:36.396Z,11.23
2022-09-07T13:43:38.089Z,12.38
2022-09-07T13:49:01.124Z,11.95
2022-09-07T13:54:36.993Z,11.93
2022-09-07T13:59:42.467Z,12.45
2022-09-07T14:04:49.189Z,12.10
2022-09-07T14:10:20.645Z,11.27
2022-09-07T14:15:34.581Z,10.90
2022-09-07T14:20:43.757Z,11.70
2022-09-07T14:31:16.394Z,11.35
2022-09-07T14:41:43.273Z,12.52
2022-09-07T14:46:50.582Z,12.48
2022-09-07T14:51:55.325Z,11.32
2022-09-07T14:57:10.536Z,12.07
2022-09-07T15:02:18.238Z,12.82
2022-09-07T15:07:37.283Z,13.37
2022-09-07T15:12:42.213Z,12.55
2022-09-07T15:17:44.782Z,12.93
2022-09-07T15:22:46.443Z,12.05
2022-09-07T15:27:48.023Z,13.27
2022-09-07T15:32:49.607Z,12.70
2022-09-07T15:38:59.428Z,12.30
2022-09-07T15:43:20.317Z,12.60
2022-09-07T15:48:25.179Z,13.30
2022-09-07T15:58:53.137Z,12.80
2022-09-07T16:03:57.003Z,12.75
2022-09-07T16:08:58.626Z,12.60
2022-09-07T16:14:02.380Z,12.10
2022-09-07T16:19:07.307Z,12.13
2022-09-07T16:24:10.354Z,12.73
2022-09-07T16:29:12.159Z,12.95
2022-09-07T16:34:18.283Z,13.32
2022-09-07T16:39:20.349Z,12.48
2022-09-07T16:44:21.878Z,12.05
2022-09-07T16:49:23.534Z,12.15
2022-09-07T16:54:25.032Z,12.68
2022-09-07T16:59:26.815Z,16.50
2022-09-07T17:04:29.075Z,20.00
2022-09-07T17:09:30.713Z,24.60
2022-09-07T17:14:32.229Z,21.67
2022-09-07T17:19:34.456Z,17.83
2022-09-07T17:24:36.179Z,13.10
2022-09-07T17:29:37.937Z,12.20
2022-09-07T17:34:39.475Z,12.20
2022-09-07T17:39:41.221Z,11.70
2022-09-07T17:44:42.893Z,11.23
2022-09-07T17:49:44.982Z,11.73
2022-09-07T17:54:47.299Z,11.68
2022-09-07T18:05:11.518Z,11.85
2022-09-07T18:10:13.232Z,11.00
2022-09-07T18:15:14.900Z,11.48
2022-09-07T18:20:17.004Z,11.65
2022-09-07T18:25:18.602Z,10.45
2022-09-07T18:30:20.253Z,10.13
2022-09-07T18:35:22.514Z,10.77
2022-09-07T18:40:24.099Z,10.90
2022-09-07T18:45:27.509Z,11.35
2022-09-07T18:50:29.452Z,11.90
2022-09-07T18:55:32.232Z,14.32
2022-09-07T19:00:33.862Z,12.80
2022-09-07T19:05:51.419Z,13.50
2022-09-07T19:10:54.157Z,14.57
2022-09-07T19:16:07.452Z,13.95
2022-09-07T19:21:14.744Z,15.27
2022-09-07T19:26:18.283Z,16.17
2022-09-07T19:31:19.980Z,13.95
2022-09-07T19:36:21.887Z,13.93
2022-09-07T19:41:23.774Z,16.23
2022-09-07T19:46:25.770Z,15.18
2022-09-07T19:51:27.747Z,15.60
2022-09-07T19:56:29.245Z,14.93
2022-09-07T20:01:31.142Z,15.10
2022-09-07T20:06:34.278Z,14.93
2022-09-07T20:11:36.382Z,14.90
2022-09-07T20:16:39.912Z,15.70
2022-09-07T20:21:42.049Z,14.30
2022-09-07T20:26:43.544Z,15.48
2022-09-07T20:31:45.780Z,14.45
2022-09-07T20:36:52.321Z,15.43
2022-09-07T20:41:54.021Z,16.05
2022-09-07T20:46:55.679Z,17.65
2022-09-07T20:51:57.306Z,16.95
2022-09-07T20:57:03.266Z,16.55
2022-09-07T21:02:05.646Z,16.83
2022-09-07T21:07:07.200Z,16.77
2022-09-07T21:12:08.721Z,17.10
2022-09-07T21:17:10.286Z,16.20
2022-09-07T21:22:11.900Z,17.15
2022-09-07T21:27:13.409Z,16.85
2022-09-07T21:32:14.920Z,16.48
2022-09-07T21:37:16.768Z,16.23
2022-09-07T21:42:18.283Z,16.80
2022-09-07T21:47:19.832Z,19.38
2022-09-07T21:52:21.340Z,17.92
2022-09-07T21:57:23.439Z,19.52
2022-09-07T22:02:25.054Z,18.38
2022-09-07T22:07:26.606Z,17.23
2022-09-07T22:12:28.619Z,18.02
2022-09-07T22:17:44.474Z,17.98
2022-09-07T22:22:47.789Z,16.20
2022-09-07T22:27:49.636Z,17.35
2022-09-07T22:32:51.920Z,16.25
2022-09-07T22:37:53.496Z,15.70
2022-09-07T22:42:55.067Z,16.98
2022-09-07T22:47:57.345Z,16.23
2022-09-07T22:52:59.202Z,17.42
2022-09-07T22:58:00.706Z,19.85
2022-09-07T23:03:03.768Z,17.15
2022-09-07T23:08:05.814Z,17.45
2022-09-07T23:13:09.032Z,17.00
2022-09-07T23:18:19.340Z,17.42
2022-09-07T23:23:20.924Z,17.90
2022-09-07T23:28:22.555Z,18.20
2022-09-07T23:33:26.122Z,18.40
2022-09-07T23:38:28.444Z,16.55
2022-09-07T23:43:31.360Z,15.95
2022-09-07T23:48:33.044Z,16.75
2022-09-07T23:53:35.045Z,17.45
2022-09-07T23:58:36.714Z,16.40
